createdAt,value
2019-04-29T00:01:02.686Z,99402.38
2019-04-29T00:06:11.003Z,99400.05
2019-04-29T00:11:18.534Z,99401.89
2019-04-29T00:16:44.666Z,99407.39
2019-04-29T00:21:52.122Z,99400.81
2019-04-29T00:26:59.529Z,99398.98
2019-04-29T00:32:07.534Z,99401.09
2019-04-29T00:37:26.305Z,99392.48
2019-04-29T00:43:10.496Z,99393.80
2019-04-29T00:48:18.423Z,99392.78
2019-04-29T00:53:26.266Z,99399.61
2019-04-29T00:58:33.615Z,99406.12
2019-04-29T01:03:41.227Z,99400.38
2019-04-29T01:08:49.086Z,99405.94
2019-04-29T01:13:56.391Z,99396.77
2019-04-29T01:19:04.051Z,99391.27
2019-04-29T01:24:11.574Z,99385.52
2019-04-29T01:29:19.912Z,99385.27
2019-04-29T01:34:32.312Z,99378.39
2019-04-29T01:39:45.577Z,99374.96
2019-04-29T01:44:52.946Z,99377.55
2019-04-29T01:50:00.327Z,99377.45
2019-04-29T01:55:07.707Z,99379.28
2019-04-29T02:00:15.406Z,99378.41
2019-04-29T02:05:22.801Z,99373.91
2019-04-29T02:10:34.583Z,99371.91
2019-04-29T02:15:41.938Z,99364.58
2019-04-29T02:20:49.294Z,99299.97
2019-04-29T02:25:56.772Z,99297.68
2019-04-29T02:31:21.835Z,99299.75
2019-04-29T02:36:30.143Z,99294.12
2019-04-29T02:41:52.073Z,99289.54
2019-04-29T02:46:59.465Z,99278.66
2019-04-29T02:52:06.914Z,99275.72
2019-04-29T02:57:37.613Z,99284.26
2019-04-29T03:02:53.223Z,99284.10
2019-04-29T03:08:00.639Z,99275.73
2019-04-29T03:13:08.421Z,99272.92
2019-04-29T03:18:17.155Z,99279.42
2019-04-29T03:23:25.037Z,99279.09
2019-04-29T03:28:32.505Z,99272.77
2019-04-29T03:33:39.893Z,99262.52
2019-04-29T03:38:47.312Z,99259.14
2019-04-29T03:43:54.656Z,99259.93
2019-04-29T03:49:01.889Z,99258.44
2019-04-29T03:54:11.257Z,99254.79
2019-04-29T03:59:18.871Z,99257.36
2019-04-29T04:04:44.103Z,99247.72
2019-04-29T04:09:51.481Z,99238.63
2019-04-29T04:14:58.697Z,99239.34
2019-04-29T04:20:06.583Z,99251.61
2019-04-29T04:25:13.992Z,99253.36
2019-04-29T04:30:22.971Z,99241.70
2019-04-29T04:35:30.352Z,99250.94
2019-04-29T04:40:43.518Z,99243.27
2019-04-29T04:45:50.796Z,99233.95
2019-04-29T04:50:58.083Z,99226.41
2019-04-29T04:56:05.324Z,99230.77
2019-04-29T05:01:12.699Z,99221.88
2019-04-29T05:06:20.007Z,99216.05
2019-04-29T05:11:27.251Z,99217.73
2019-04-29T05:16:34.561Z,99210.11
2019-04-29T05:21:42.070Z,99208.91
2019-04-29T05:26:49.303Z,99203.77
2019-04-29T05:31:56.578Z,99194.26
2019-04-29T05:37:28.784Z,99210.81
2019-04-29T05:42:36.209Z,99212.18
2019-04-29T05:47:47.087Z,99205.03
2019-04-29T05:53:00.101Z,99210.63
2019-04-29T05:58:13.086Z,99201.69
2019-04-29T06:03:20.359Z,99197.70
2019-04-29T06:08:27.734Z,99199.50
2019-04-29T06:13:35.014Z,99185.95
2019-04-29T06:18:42.256Z,99191.37
2019-04-29T06:23:49.601Z,99177.92
2019-04-29T06:28:56.912Z,99186.41
2019-04-29T06:34:05.299Z,99188.52
2019-04-29T06:39:13.414Z,99193.13
2019-04-29T06:44:20.640Z,99206.39
2019-04-29T06:49:28.012Z,99202.46
2019-04-29T06:54:35.273Z,99202.17
2019-04-29T06:59:42.910Z,99190.66
2019-04-29T07:04:51.507Z,99199.19
2019-04-29T07:09:58.827Z,99177.62
2019-04-29T07:15:07.710Z,99175.67
2019-04-29T07:20:15.946Z,99173.17
2019-04-29T07:25:24.648Z,99163.37
2019-04-29T07:30:32.170Z,99169.15
2019-04-29T07:35:43.117Z,99160.08
2019-04-29T07:40:48.467Z,99148.75
2019-04-29T07:46:16.399Z,99140.31
2019-04-29T07:51:23.618Z,99129.65
2019-04-29T07:56:30.947Z,99125.31
2019-04-29T08:01:38.364Z,99137.64
2019-04-29T08:06:46.771Z,99171.77
2019-04-29T08:11:54.757Z,99199.36
2019-04-29T08:17:02.002Z,99193.24
2019-04-29T08:22:09.390Z,99169.03
2019-04-29T08:27:16.728Z,99143.09
2019-04-29T08:32:24.241Z,99135.28
2019-04-29T08:37:31.621Z,99142.41
2019-04-29T08:42:46.534Z,99143.47
2019-04-29T08:47:51.454Z,99146.36
2019-04-29T08:52:58.704Z,99115.88
2019-04-29T08:58:06.898Z,99093.37
2019-04-29T09:03:18.761Z,99098.95
2019-04-29T09:08:24.159Z,99077.28
2019-04-29T09:13:31.568Z,99063.31
2019-04-29T09:18:38.898Z,99062.25
2019-04-29T09:23:46.289Z,99067.16
2019-04-29T09:28:53.598Z,99057.16
2019-04-29T09:34:06.881Z,99053.86
2019-04-29T09:39:09.941Z,99051.80
2019-04-29T09:44:35.288Z,99048.47
2019-04-29T09:49:43.980Z,99059.05
2019-04-29T09:54:51.382Z,99099.72
2019-04-29T10:00:07.280Z,99138.98
2019-04-29T10:05:32.238Z,99158.50
2019-04-29T10:10:39.803Z,99161.75
2019-04-29T10:16:05.888Z,99153.03
2019-04-29T10:21:16.713Z,99117.67
2019-04-29T10:26:24.161Z,99074.78
2019-04-29T10:31:31.463Z,99061.55
2019-04-29T10:36:38.673Z,99040.84
2019-04-29T10:41:47.915Z,99046.01
2019-04-29T10:47:12.666Z,99035.16
2019-04-29T10:52:20.323Z,99055.53
2019-04-29T10:57:29.424Z,99045.28
2019-04-29T11:02:39.619Z,99047.91
2019-04-29T11:07:47.437Z,99046.44
2019-04-29T11:12:56.271Z,99054.70
2019-04-29T11:18:04.873Z,99043.52
2019-04-29T11:23:32.223Z,99045.83
2019-04-29T11:28:41.156Z,99050.16
2019-04-29T11:33:58.813Z,99048.41
2019-04-29T11:39:13.565Z,99038.23
2019-04-29T11:44:22.012Z,99038.59
2019-04-29T11:49:35.442Z,99040.73
2019-04-29T11:54:42.715Z,99025.59
2019-04-29T12:00:10.190Z,99019.95
2019-04-29T12:05:23.245Z,99019.73
2019-04-29T12:10:30.832Z,99017.26
2019-04-29T12:15:57.604Z,99022.11
2019-04-29T12:21:25.677Z,99017.52
2019-04-29T12:26:35.521Z,99018.58
2019-04-29T12:32:04.488Z,99016.89
2019-04-29T12:37:39.785Z,99018.61
2019-04-29T12:43:18.110Z,99014.25
2019-04-29T12:48:25.722Z,99012.73
2019-04-29T12:53:33.085Z,99017.72
2019-04-29T12:58:40.481Z,99016.53
2019-04-29T13:04:05.438Z,99021.02
2019-04-29T13:09:19.798Z,99013.12
2019-04-29T13:14:33.101Z,99003.69
2019-04-29T13:19:54.630Z,98996.09
2019-04-29T13:24:54.992Z,98994.95
2019-04-29T13:30:02.407Z,98993.50
2019-04-29T13:35:12.764Z,98993.46
2019-04-29T13:40:20.736Z,98986.55
2019-04-29T13:45:36.293Z,98989.56
2019-04-29T13:50:47.808Z,98979.02
2019-04-29T13:56:10.515Z,98974.87
2019-04-29T14:01:32.943Z,98975.13
2019-04-29T14:06:36.127Z,98978.79
2019-04-29T14:11:43.445Z,98990.97
2019-04-29T14:17:08.071Z,98987.84
2019-04-29T14:21:59.819Z,98983.66
2019-04-29T14:27:07.473Z,98967.97
2019-04-29T14:32:18.086Z,98973.09
2019-04-29T14:37:25.505Z,98974.59
2019-04-29T14:42:39.575Z,98975.84
2019-04-29T14:47:52.923Z,98964.06
2019-04-29T14:53:00.349Z,98972.97
2019-04-29T14:58:07.660Z,98968.16
2019-04-29T15:03:14.989Z,98969.84
2019-04-29T15:08:22.372Z,98975.34
2019-04-29T15:13:29.702Z,98973.72
2019-04-29T15:18:54.820Z,98983.38
2019-04-29T15:24:02.303Z,98985.69
2019-04-29T15:29:10.915Z,98985.08
2019-04-29T15:34:18.432Z,98988.07
2019-04-29T15:39:26.376Z,99000.90
2019-04-29T15:44:35.002Z,99002.50
2019-04-29T15:49:42.417Z,99001.84
2019-04-29T15:54:50.918Z,99011.22
2019-04-29T16:00:03.723Z,99009.19
2019-04-29T16:05:28.825Z,99011.45
2019-04-29T16:10:57.936Z,99013.08
2019-04-29T16:16:02.543Z,99017.09
2019-04-29T16:21:10.020Z,99020.59
2019-04-29T16:26:17.484Z,99021.67
2019-04-29T16:31:25.144Z,99020.59
2019-04-29T16:36:32.655Z,99015.49
2019-04-29T16:41:58.651Z,99012.97
2019-04-29T16:47:13.292Z,99016.61
2019-04-29T16:52:18.104Z,99007.77
2019-04-29T16:57:25.547Z,99013.13
2019-04-29T17:02:33.026Z,99017.66
2019-04-29T17:07:41.639Z,99014.83
2019-04-29T17:12:51.110Z,99011.21
2019-04-29T17:17:59.495Z,99012.36
2019-04-29T17:23:06.797Z,99017.04
2019-04-29T17:28:42.022Z,99017.87
2019-04-29T17:33:59.196Z,99015.31
2019-04-29T17:39:09.442Z,99014.08
2019-04-29T17:44:28.213Z,99010.43
2019-04-29T17:50:02.099Z,99017.34
2019-04-29T17:55:38.659Z,99014.91
2019-04-29T18:01:05.852Z,99018.75
2019-04-29T18:06:24.438Z,99028.36
2019-04-29T18:11:27.871Z,99036.28
2019-04-29T18:16:43.781Z,99030.77
2019-04-29T18:22:24.767Z,99040.97
2019-04-29T18:27:34.994Z,99040.13
2019-04-29T18:32:46.693Z,99036.87
2019-04-29T18:37:55.742Z,99038.27
2019-04-29T18:43:04.898Z,99040.84
2019-04-29T18:48:16.988Z,99039.95
2019-04-29T18:54:09.451Z,99052.94
2019-04-29T18:59:30.404Z,99056.78
2019-04-29T19:04:53.425Z,99061.20
2019-04-29T19:11:15.384Z,99055.51
2019-04-29T19:17:25.745Z,99053.73
2019-04-29T19:22:47.639Z,99055.81
2019-04-29T19:28:11.746Z,99057.51
2019-04-29T19:33:15.144Z,99055.78
2019-04-29T19:38:25.292Z,99055.37
2019-04-29T19:43:42.678Z,99051.64
2019-04-29T19:48:45.132Z,99062.52
2019-04-29T19:54:23.893Z,99061.86
2019-04-29T19:59:36.872Z,99068.83
2019-04-29T20:05:09.992Z,99065.42
2019-04-29T20:11:12.355Z,99068.50
2019-04-29T20:16:09.888Z,99073.26
2019-04-29T20:41:40.705Z,99085.28
2019-04-29T20:58:50.408Z,99089.47
2019-04-29T21:05:14.432Z,99096.62
2019-04-29T21:30:35.555Z,99097.53
2019-04-29T21:35:58.088Z,99106.52
2019-04-29T21:41:20.137Z,99111.12
2019-04-29T21:53:40.168Z,99112.91
2019-04-29T21:58:46.342Z,99103.67
2019-04-29T22:03:57.653Z,99108.77
2019-04-29T22:09:05.185Z,99112.48
2019-04-29T22:14:14.174Z,99114.52
2019-04-29T22:20:07.437Z,99118.74
2019-04-29T22:26:05.062Z,99118.70
2019-04-29T22:31:14.843Z,99116.47
2019-04-29T22:36:22.028Z,99124.56
2019-04-29T22:42:07.566Z,99121.41
2019-04-29T22:47:17.302Z,99131.18
2019-04-29T22:52:25.488Z,99132.17
2019-04-29T22:57:32.505Z,99128.20
2019-04-29T23:02:39.928Z,99129.42
2019-04-29T23:07:46.983Z,99138.66
2019-04-29T23:12:57.439Z,99146.84
2019-04-29T23:18:03.028Z,99146.05
2019-04-29T23:23:15.684Z,99135.38
2019-04-29T23:28:26.900Z,99135.04
2019-04-29T23:33:31.868Z,99135.28
2019-04-29T23:38:42.892Z,99128.60
2019-04-29T23:43:47.899Z,99130.46
2019-04-29T23:48:56.479Z,99132.50
2019-04-29T23:54:07.856Z,99129.33
2019-04-29T23:59:20.881Z,99131.85
